Time;durP1;ratioP1;P1;durP2;ratioP2;P2;SDS_P1;SDS_P2;PMS_P1;PMS_P2;Temp;Humidity;BMP_temperature;BMP_pressure;BME280_temperature;BME280_humidity;BME280_pressure;Samples;Min_cycle;Max_cycle;Signal;HPM_P1;HPM_P2
2022/12/02 00:00:00;;;;;;;2.00;1.20;;;8.70;53.00;;;;;;20919380;28;20057;-59
2022/12/02 00:10:17;;;;;;;2.53;1.50;;;8.50;53.40;;;;;;20918454;28;20057;-59
2022/12/02 00:20:18;;;;;;;2.78;1.67;;;8.50;53.40;;;;;;20917962;28;20404;-60
2022/12/02 00:30:20;;;;;;;2.22;1.45;;;8.40;53.90;;;;;;20916850;28;20063;-62
2022/12/02 00:40:21;;;;;;;5.43;1.75;;;8.30;54.10;;;;;;20916187;28;20382;-61
2022/12/02 00:50:23;;;;;;;3.20;1.77;;;8.20;54.50;;;;;;20915950;28;20048;-60
2022/12/02 01:00:25;;;;;;;6.38;1.77;;;8.10;54.90;;;;;;20915195;28;20052;-60
2022/12/02 01:10:26;;;;;;;2.20;1.63;;;8.10;55.00;;;;;;20914964;28;20049;-60
2022/12/02 01:20:28;;;;;;;2.70;1.80;;;7.90;55.40;;;;;;20914647;28;20048;-60
2022/12/02 01:30:29;;;;;;;3.42;1.88;;;7.80;55.80;;;;;;20915896;28;20140;-62
2022/12/02 01:40:32;;;;;;;3.55;2.10;;;8.00;55.50;;;;;;20913170;28;20104;-61
2022/12/02 01:50:34;;;;;;;3.88;2.25;;;8.00;55.60;;;;;;20913699;28;20469;-58
2022/12/02 02:00:35;;;;;;;3.22;2.05;;;8.00;55.80;;;;;;20926869;28;20405;-59
2022/12/02 02:10:38;;;;;;;3.05;2.10;;;7.90;56.20;;;;;;20927921;28;20051;-58
2022/12/02 02:20:41;;;;;;;3.47;1.88;;;7.80;56.60;;;;;;20928109;28;20100;-59
2022/12/02 02:30:45;;;;;;;3.60;2.17;;;7.60;56.70;;;;;;20926715;28;20065;-60
2022/12/02 02:40:48;;;;;;;3.65;1.85;;;7.60;56.80;;;;;;20926043;28;20469;-60
2022/12/02 02:50:52;;;;;;;4.28;2.10;;;7.50;56.80;;;;;;20926364;28;20492;-61
2022/12/02 03:01:04;;;;;;;4.82;2.20;;;7.40;57.20;;;;;;20924030;28;20052;-60
2022/12/02 03:11:08;;;;;;;3.83;2.30;;;7.30;57.40;;;;;;20923472;28;20135;-60
2022/12/02 03:21:15;;;;;;;3.47;2.40;;;7.30;57.80;;;;;;20923178;28;20481;-61
2022/12/02 03:31:18;;;;;;;3.53;2.33;;;7.20;58.00;;;;;;20921316;28;20163;-61
2022/12/02 03:41:22;;;;;;;3.88;2.10;;;7.20;58.20;;;;;;20922001;28;20103;-61
2022/12/02 03:51:26;;;;;;;4.03;2.70;;;7.20;58.40;;;;;;20921088;28;20057;-60
2022/12/02 04:01:28;;;;;;;3.40;2.15;;;7.10;58.80;;;;;;20920160;28;20053;-60
2022/12/02 04:11:30;;;;;;;7.15;2.40;;;7.10;59.00;;;;;;20920295;28;20513;-60
2022/12/02 04:21:34;;;;;;;4.75;3.10;;;7.20;58.90;;;;;;20921358;28;20041;-60
2022/12/02 04:31:55;;;;;;;7.38;2.60;;;7.20;58.80;;;;;;20928251;28;20088;-58
2022/12/02 04:42:07;;;;;;;3.72;2.17;;;7.10;58.70;;;;;;20927777;28;20052;-61
2022/12/02 04:52:14;;;;;;;;;;;7.10;58.80;;;;;;20926357;28;20052;-60
2022/12/02 05:02:19;;;;;;;5.73;2.83;;;7.10;58.40;;;;;;20915641;28;20018;-61
2022/12/02 05:12:23;;;;;;;5.72;2.70;;;7.10;58.30;;;;;;20914468;28;20044;-59
2022/12/02 05:22:27;;;;;;;3.60;2.40;;;7.20;58.10;;;;;;20913866;28;20095;-60
2022/12/02 05:32:33;;;;;;;4.63;2.53;;;7.10;57.70;;;;;;20912628;28;20088;-65
2022/12/02 05:42:35;;;;;;;4.95;2.33;;;7.10;57.30;;;;;;20912869;28;20425;-60
2022/12/02 05:52:37;;;;;;;4.68;2.55;;;7.00;57.80;;;;;;20911780;28;20111;-61
2022/12/02 06:02:44;;;;;;;7.85;2.95;;;6.90;57.90;;;;;;20912650;28;20049;-60
2022/12/02 06:12:44;;;;;;;4.95;3.35;;;6.90;58.30;;;;;;20911966;28;20053;-60
2022/12/02 06:22:46;;;;;;;5.22;3.42;;;7.00;57.60;;;;;;20912639;28;20408;-60
2022/12/02 06:32:54;;;;;;;4.25;3.40;;;7.20;57.80;;;;;;20909752;28;20064;-59
2022/12/02 06:42:59;;;;;;;6.50;3.90;;;7.20;57.80;;;;;;20918041;28;20132;-60
2022/12/02 06:53:23;;;;;;;4.80;3.83;;;7.10;58.60;;;;;;20925714;28;20219;-61
2022/12/02 07:03:34;;;;;;;7.57;3.78;;;7.00;59.00;;;;;;20925370;28;20198;-60
2022/12/02 07:13:36;;;;;;;6.15;3.97;;;7.00;59.20;;;;;;20923154;28;20053;-62
2022/12/02 07:23:38;;;;;;;5.07;3.70;;;7.10;59.50;;;;;;20923433;28;20048;-60
2022/12/02 07:33:40;;;;;;;5.40;4.00;;;7.00;59.80;;;;;;20921346;28;20053;-59
2022/12/02 07:43:42;;;;;;;9.13;4.38;;;7.10;59.80;;;;;;20921732;28;20045;-61
2022/12/02 07:53:44;;;;;;;122.32;15.98;;;7.10;60.10;;;;;;20918164;28;20092;-61
2022/12/02 08:03:46;;;;;;;8.85;4.40;;;7.10;60.20;;;;;;20919808;28;20128;-60
2022/12/02 08:13:48;;;;;;;11.27;4.10;;;7.20;59.70;;;;;;20900646;28;20535;-60
2022/12/02 08:23:50;;;;;;;10.10;4.38;;;7.20;59.80;;;;;;20917595;28;20420;-62
2022/12/02 08:33:52;;;;;;;9.90;4.05;;;7.20;59.90;;;;;;20916159;28;20057;-60
2022/12/02 08:43:53;;;;;;;10.10;4.40;;;7.30;59.30;;;;;;20916179;28;20095;-59
2022/12/02 08:53:55;;;;;;;7.18;3.63;;;7.50;59.30;;;;;;20916097;28;20049;-63
2022/12/02 09:03:57;;;;;;;7.75;4.00;;;8.70;61.20;;;;;;20914052;28;20044;-61
2022/12/02 09:13:59;;;;;;;10.45;3.90;;;9.10;56.80;;;;;;20924232;28;20095;-61
2022/12/02 09:24:02;;;;;;;14.82;5.07;;;11.20;52.40;;;;;;20987120;28;20049;-81
2022/12/02 09:34:04;;;;;;;8.35;4.57;;;11.30;50.00;;;;;;21022654;28;20052;-70
2022/12/02 09:44:06;;;;;;;7.80;5.55;;;10.90;51.60;;;;;;21036288;28;20052;-69
2022/12/02 09:54:11;;;;;;;8.38;5.50;;;10.60;51.50;;;;;;21036714;28;20048;-66
2022/12/02 10:04:17;;;;;;;10.52;5.55;;;10.00;53.30;;;;;;21064745;28;20079;-64
2022/12/02 10:14:19;;;;;;;8.50;5.78;;;10.00;52.80;;;;;;21079781;28;20048;-63
2022/12/02 10:24:42;;;;;;;10.18;5.78;;;9.50;54.90;;;;;;21093138;28;20044;-63
2022/12/02 10:34:59;;;;;;;10.98;6.65;;;9.30;54.70;;;;;;21093456;28;20472;-63
2022/12/02 10:45:16;;;;;;;10.45;6.25;;;9.20;55.10;;;;;;21091553;28;20131;-61
2022/12/02 10:55:19;;;;;;;9.27;5.75;;;9.30;54.70;;;;;;21091917;28;20142;-64
2022/12/02 11:05:24;;;;;;;15.20;5.75;;;9.30;54.60;;;;;;21091368;28;20083;-61
2022/12/02 11:15:31;;;;;;;12.07;6.00;;;9.40;54.40;;;;;;21091394;28;20499;-61
2022/12/02 11:25:42;;;;;;;15.90;8.68;;;9.50;54.50;;;;;;21088002;28;20052;-64
2022/12/02 11:36:07;;;;;;;11.45;7.60;;;9.70;54.30;;;;;;21088448;28;20048;-61
2022/12/02 11:46:09;;;;;;;13.82;7.50;;;10.20;53.60;;;;;;20924341;28;20083;-59
2022/12/02 11:56:16;;;;;;;15.00;8.40;;;10.40;53.60;;;;;;20922818;28;20128;-60
2022/12/02 12:06:24;;;;;;;9.35;6.80;;;10.70;53.10;;;;;;20918934;28;20045;-60
2022/12/02 12:16:26;;;;;;;9.23;6.60;;;10.60;54.00;;;;;;20917406;28;20057;-60
2022/12/02 12:26:33;;;;;;;12.07;8.00;;;10.70;54.70;;;;;;20916324;28;20053;-64
2022/12/02 12:36:35;;;;;;;13.40;7.93;;;10.80;54.20;;;;;;20897247;28;20110;-65
2022/12/02 12:46:37;;;;;;;11.95;7.05;;;10.70;54.40;;;;;;20914895;28;20052;-61
2022/12/02 12:56:38;;;;;;;11.52;7.63;;;10.90;54.20;;;;;;20914601;28;20124;-59
2022/12/02 13:06:40;;;;;;;14.27;8.05;;;11.00;54.60;;;;;;20912935;28;20057;-61
2022/12/02 13:16:41;;;;;;;7.35;5.43;;;10.90;54.60;;;;;;20912753;28;20059;-62
2022/12/02 13:26:43;;;;;;;8.38;6.00;;;11.10;55.20;;;;;;20911921;28;20106;-62
2022/12/02 13:36:46;;;;;;;10.40;5.15;;;11.20;55.80;;;;;;20910781;28;20080;-62
2022/12/02 13:46:48;;;;;;;10.82;5.40;;;11.20;55.60;;;;;;20912022;28;20049;-63
2022/12/02 13:56:49;;;;;;;12.20;6.10;;;11.20;55.60;;;;;;20927668;28;20045;-62
2022/12/02 14:06:51;;;;;;;10.25;5.72;;;11.30;55.50;;;;;;20927548;28;20137;-64
2022/12/02 14:16:53;;;;;;;6.70;5.05;;;11.20;55.30;;;;;;20926293;28;20041;-61
2022/12/02 14:26:55;;;;;;;11.75;6.35;;;11.30;55.10;;;;;;20925317;28;20053;-61
2022/12/02 14:36:57;;;;;;;6.97;5.28;;;11.30;55.30;;;;;;20923948;28;20107;-61
2022/12/02 14:46:58;;;;;;;9.85;5.63;;;11.30;54.70;;;;;;20924991;28;20358;-61
2022/12/02 14:57:00;;;;;;;11.23;6.30;;;11.10;55.30;;;;;;20924957;28;20131;-60
2022/12/02 15:07:01;;;;;;;8.90;5.80;;;11.20;55.20;;;;;;20921968;28;20150;-60
2022/12/02 15:17:04;;;;;;;10.52;5.85;;;11.20;55.50;;;;;;20922163;28;20048;-61
2022/12/02 15:27:06;;;;;;;6.78;5.35;;;11.20;55.20;;;;;;20921302;28;20072;-60
2022/12/02 15:37:07;;;;;;;9.20;5.80;;;11.20;55.00;;;;;;20920201;28;20494;-62
2022/12/02 15:47:09;;;;;;;12.00;5.47;;;11.20;54.10;;;;;;20919512;28;20045;-61
2022/12/02 15:57:11;;;;;;;13.43;7.15;;;11.10;54.30;;;;;;20918518;28;20135;-60
2022/12/02 16:07:14;;;;;;;13.20;6.63;;;11.00;54.50;;;;;;20918191;28;20440;-62
2022/12/02 16:17:17;;;;;;;11.73;6.47;;;11.00;55.00;;;;;;20916469;28;20099;-61
2022/12/02 16:27:18;;;;;;;12.27;6.82;;;11.00;55.20;;;;;;20919202;28;20057;-62
2022/12/02 16:37:39;;;;;;;20.58;13.75;;;10.90;55.40;;;;;;20916225;28;20103;-61
2022/12/02 16:47:44;;;;;;;9.47;5.77;;;10.90;55.60;;;;;;20898465;28;20052;-60
2022/12/02 16:57:46;;;;;;;11.55;5.78;;;10.70;56.00;;;;;;20914711;28;20167;-61
2022/12/02 17:07:49;;;;;;;11.07;6.15;;;10.70;56.40;;;;;;20914756;28;20049;-62
2022/12/02 17:17:51;;;;;;;15.70;9.75;;;10.70;57.00;;;;;;20916171;28;20136;-61
2022/12/02 17:27:53;;;;;;;27.48;14.77;;;10.60;56.80;;;;;;20910919;28;20223;-61
2022/12/02 17:37:54;;;;;;;10.15;6.30;;;10.40;57.90;;;;;;20912182;28;20111;-61
2022/12/02 17:47:56;;;;;;;20.48;9.32;;;10.30;58.60;;;;;;20916598;28;20076;-61
2022/12/02 17:57:58;;;;;;;25.80;12.75;;;10.20;59.30;;;;;;20921864;28;20416;-61
2022/12/02 18:08:01;;;;;;;28.15;17.60;;;10.10;59.80;;;;;;20914879;28;20135;-62
2022/12/02 18:18:03;;;;;;;13.02;8.95;;;10.00;60.30;;;;;;20911938;28;20128;-63
2022/12/02 18:28:07;;;;;;;8.97;6.67;;;9.90;60.80;;;;;;20910132;28;20056;-63
2022/12/02 18:38:09;;;;;;;13.25;6.88;;;9.80;61.40;;;;;;20920785;28;20085;-62
2022/12/02 18:48:11;;;;;;;10.38;5.97;;;9.70;62.20;;;;;;20925536;28;20045;-61
2022/12/02 18:58:12;;;;;;;16.83;10.63;;;9.50;62.60;;;;;;20923618;28;20048;-61
2022/12/02 19:08:14;;;;;;;7.53;5.00;;;9.50;62.70;;;;;;20927715;28;20087;-63
2022/12/02 19:18:16;;;;;;;10.25;5.50;;;9.40;62.80;;;;;;20924406;28;20045;-65
2022/12/02 19:28:19;;;;;;;48.17;30.00;;;9.20;63.30;;;;;;20922295;28;20053;-63
2022/12/02 19:38:20;;;;;;;8.07;4.72;;;9.10;63.50;;;;;;20921706;28;20509;-60
2022/12/02 19:48:22;;;;;;;8.65;5.32;;;8.90;63.60;;;;;;20919472;28;20489;-60
2022/12/02 19:58:23;;;;;;;8.98;5.32;;;8.80;63.60;;;;;;20919630;28;20049;-61
2022/12/02 20:08:29;;;;;;;7.85;5.35;;;8.70;64.00;;;;;;20920563;28;20049;-64
2022/12/02 20:18:33;;;;;;;7.07;4.57;;;8.60;64.20;;;;;;20918918;28;20415;-61
2022/12/02 20:28:34;;;;;;;7.57;4.43;;;8.50;64.00;;;;;;20916909;28;20064;-60
2022/12/02 20:38:36;;;;;;;9.07;4.82;;;8.20;64.50;;;;;;20916321;28;20045;-61
2022/12/02 20:48:37;;;;;;;7.47;5.10;;;8.10;64.70;;;;;;20916392;28;20076;-61
2022/12/02 20:58:38;;;;;;;7.68;5.15;;;8.00;64.70;;;;;;20914742;28;20052;-64
2022/12/02 21:08:40;;;;;;;7.28;5.60;;;7.80;65.20;;;;;;20915112;28;20073;-61
2022/12/02 21:18:41;;;;;;;10.48;6.88;;;7.60;65.40;;;;;;20913297;28;20049;-64
2022/12/02 21:28:43;;;;;;;9.57;6.13;;;7.50;65.70;;;;;;20912752;28;20138;-64
2022/12/02 21:38:45;;;;;;;10.88;7.18;;;7.40;65.80;;;;;;20894136;28;20090;-63
2022/12/02 21:48:46;;;;;;;11.27;7.15;;;7.30;65.90;;;;;;20912190;28;20052;-62
2022/12/02 21:58:48;;;;;;;10.30;6.88;;;7.20;66.10;;;;;;20911614;28;20045;-62
2022/12/02 22:08:50;;;;;;;19.50;10.80;;;7.10;66.30;;;;;;20912195;28;20049;-61
2022/12/02 22:18:51;;;;;;;14.10;9.15;;;7.10;66.10;;;;;;20926850;28;20477;-61
2022/12/02 22:28:53;;;;;;;11.13;7.78;;;7.10;66.10;;;;;;20927017;28;20049;-62
2022/12/02 22:38:54;;;;;;;10.65;6.55;;;7.20;65.80;;;;;;20926230;28;20072;-60
2022/12/02 22:48:56;;;;;;;12.00;7.30;;;7.20;65.70;;;;;;20925077;28;20140;-61
2022/12/02 22:58:57;;;;;;;9.88;6.60;;;7.20;65.90;;;;;;20924272;28;20056;-62
2022/12/02 23:08:59;;;;;;;16.45;10.57;;;7.20;65.50;;;;;;20924626;28;20378;-63
2022/12/02 23:19:02;;;;;;;17.85;9.63;;;7.10;65.70;;;;;;20922982;28;20047;-62
2022/12/02 23:29:03;;;;;;;10.73;7.82;;;7.00;65.90;;;;;;20921347;28;20064;-61
2022/12/02 23:39:05;;;;;;;10.70;7.68;;;6.90;66.00;;;;;;20921526;28;20048;-63
2022/12/02 23:49:07;;;;;;;15.75;9.63;;;6.80;66.60;;;;;;20921049;28;20053;-63
2022/12/02 23:59:08;;;;;;;13.65;9.20;;;6.80;66.50;;;;;;20920768;28;20447;-60
